Time;durP1;ratioP1;P1;durP2;ratioP2;P2;SDS_P1;SDS_P2;PMS_P1;PMS_P2;Temp;Humidity;BMP_temperature;BMP_pressure;BME280_temperature;BME280_humidity;BME280_pressure;Samples;Min_cycle;Max_cycle;Signal;HPM_P1;HPM_P2
2024/01/03 00:01:22;;;;;;;1.20;1.00;;;;;;;7.72;100.00;98450.53;5006557;28;20833;-71
2024/01/03 00:03:49;;;;;;;1.63;0.87;;;;;;;7.73;100.00;98442.31;5010506;28;21226;-69
2024/01/03 00:06:16;;;;;;;1.10;1.00;;;;;;;7.74;100.00;98454.31;5005295;28;21820;-69
2024/01/03 00:08:43;;;;;;;1.30;1.20;;;;;;;7.75;100.00;98450.56;5006827;28;20562;-68
2024/01/03 00:11:18;;;;;;;0.80;0.80;;;;;;;7.78;100.00;98457.75;5006852;28;21623;-68
2024/01/03 00:14:06;;;;;;;1.03;0.90;;;;;;;7.79;100.00;98453.22;5010761;28;20219;-69
2024/01/03 00:16:34;;;;;;;0.93;0.80;;;;;;;7.80;100.00;98449.50;5009728;28;20219;-69
2024/01/03 00:19:02;;;;;;;1.73;1.10;;;;;;;7.81;100.00;98454.41;5011022;28;20215;-69
2024/01/03 00:21:30;;;;;;;0.80;0.77;;;;;;;7.83;100.00;98454.78;5004404;28;20228;-68
2024/01/03 00:23:58;;;;;;;1.17;0.90;;;;;;;7.84;100.00;98451.06;5007521;28;20238;-68
2024/01/03 00:26:25;;;;;;;2.67;1.10;;;;;;;7.86;100.00;98450.69;5005855;28;20213;-68
2024/01/03 00:28:52;;;;;;;1.00;0.97;;;;;;;7.89;100.00;98457.84;5009650;28;20206;-70
2024/01/03 00:31:35;;;;;;;0.93;0.77;;;;;;;7.91;100.00;98447.72;5003731;28;20219;-69
2024/01/03 00:34:02;;;;;;;1.07;0.77;;;;;;;7.93;100.00;98451.53;5002943;28;20233;-69
2024/01/03 00:36:30;;;;;;;0.83;0.83;;;;;;;7.96;100.00;98447.41;4996286;28;20217;-69
2024/01/03 00:38:56;;;;;;;0.70;0.70;;;;;;;7.98;100.00;98451.19;5002822;28;20206;-68
2024/01/03 00:41:23;;;;;;;0.83;0.70;;;;;;;8.00;100.00;98443.72;5003373;28;20220;-69
2024/01/03 00:43:49;;;;;;;0.60;0.60;;;;;;;8.04;100.00;98444.53;4999169;28;20237;-69
2024/01/03 00:46:15;;;;;;;1.00;0.90;;;;;;;8.05;100.00;98445.28;5006500;28;20218;-69
2024/01/03 00:48:42;;;;;;;0.70;0.67;;;;;;;8.08;100.00;98449.81;5006233;28;20411;-69
2024/01/03 00:51:09;;;;;;;0.50;0.50;;;;;;;8.11;100.00;98446.47;5006510;28;20231;-69
2024/01/03 00:53:37;;;;;;;0.63;0.63;;;;;;;8.12;100.00;98448.00;5008653;28;20217;-70
2024/01/03 00:56:04;;;;;;;0.80;0.63;;;;;;;8.13;100.00;98450.25;5010385;28;20217;-69
2024/01/03 00:58:30;;;;;;;1.53;1.43;;;;;;;8.14;100.00;98451.00;5009516;28;20206;-69
2024/01/03 01:00:57;;;;;;;1.13;0.80;;;;;;;8.14;100.00;98451.75;5010945;28;20274;-69
2024/01/03 01:03:23;;;;;;;0.60;0.60;;;;;;;8.15;100.00;98447.25;5008847;28;21780;-68
2024/01/03 01:05:50;;;;;;;1.13;0.50;;;;;;;8.16;100.00;98451.38;5007966;28;20385;-70
2024/01/03 01:08:16;;;;;;;0.70;0.70;;;;;;;8.18;100.00;98449.19;5006439;28;20221;-70
2024/01/03 01:10:44;;;;;;;0.70;0.70;;;;;;;8.19;100.00;98455.94;5008136;28;20218;-68
2024/01/03 01:13:10;;;;;;;0.60;0.60;;;;;;;8.20;100.00;98454.84;5015887;28;20212;-70
2024/01/03 01:15:36;;;;;;;0.90;0.60;;;;;;;8.19;100.00;98463.81;5007189;28;20240;-69
2024/01/03 01:18:03;;;;;;;0.40;0.40;;;;;;;8.21;100.00;98451.88;5009598;28;21222;-69
2024/01/03 01:20:29;;;;;;;0.73;0.73;;;;;;;8.22;100.00;98463.13;5010408;28;20213;-69
2024/01/03 01:22:56;;;;;;;0.93;0.90;;;;;;;8.23;100.00;98452.25;5009599;28;20750;-70
2024/01/03 01:25:22;;;;;;;0.77;0.77;;;;;;;8.22;100.00;98445.47;5009352;28;20237;-70
2024/01/03 01:27:50;;;;;;;0.80;0.60;;;;;;;8.23;100.00;98451.50;5012214;28;20224;-69
2024/01/03 01:30:16;;;;;;;0.53;0.53;;;;;;;8.24;100.00;98455.66;5008349;28;20217;-70
2024/01/03 01:32:48;;;;;;;0.30;0.30;;;;;;;8.22;100.00;98450.75;4999495;28;20728;-69
2024/01/03 01:35:15;;;;;;;0.53;0.53;;;;;;;8.22;100.00;98452.59;5001857;28;20232;-69
2024/01/03 01:37:42;;;;;;;2.80;0.70;;;;;;;8.22;100.00;98460.50;5004678;28;21840;-69
2024/01/03 01:40:10;;;;;;;0.60;0.60;;;;;;;8.21;100.00;98451.88;5003804;28;20797;-70
2024/01/03 01:42:37;;;;;;;0.80;0.50;;;;;;;8.22;100.00;98461.25;4999686;28;20222;-69
2024/01/03 01:45:05;;;;;;;0.60;0.60;;;;;;;8.24;100.00;98453.75;5000256;28;20242;-69
2024/01/03 01:47:31;;;;;;;0.50;0.50;;;;;;;8.27;100.00;98454.91;5000091;28;20240;-70
2024/01/03 01:49:58;;;;;;;0.70;0.70;;;;;;;8.26;100.00;98464.69;5004328;28;20214;-68
2024/01/03 01:52:25;;;;;;;0.83;0.50;;;;;;;8.30;100.00;98469.97;5002790;28;20531;-70
2024/01/03 01:54:51;;;;;;;0.73;0.60;;;;;;;8.31;100.00;98463.59;5004567;28;20237;-69
2024/01/03 01:57:19;;;;;;;0.60;0.60;;;;;;;8.31;100.00;98467.00;4999528;28;20214;-68
2024/01/03 01:59:47;;;;;;;1.50;0.70;;;;;;;8.34;100.00;98466.25;5001592;28;21267;-69
2024/01/03 02:02:16;;;;;;;0.73;0.50;;;;;;;8.36;100.00;98476.41;5002823;28;20226;-68
2024/01/03 02:04:43;;;;;;;0.40;0.40;;;;;;;8.38;100.00;98479.47;5005287;28;20754;-68
2024/01/03 02:07:09;;;;;;;0.70;0.70;;;;;;;8.39;100.00;98478.34;5002701;28;20209;-68
2024/01/03 02:09:35;;;;;;;0.60;0.60;;;;;;;8.41;100.00;98481.34;5001936;28;20587;-69
2024/01/03 02:12:02;;;;;;;0.40;0.40;;;;;;;8.43;100.00;98485.13;5003247;28;20595;-70
2024/01/03 02:14:28;;;;;;;0.87;0.87;;;;;;;8.44;100.00;98486.63;5004273;28;20318;-68
2024/01/03 02:16:54;;;;;;;1.27;0.70;;;;;;;8.47;100.00;98488.56;4995608;28;20221;-68
2024/01/03 02:19:22;;;;;;;0.60;0.60;;;;;;;8.49;100.00;98482.94;4989953;28;20217;-69
2024/01/03 02:21:50;;;;;;;1.20;0.47;;;;;;;8.51;100.00;98483.31;4999358;28;20754;-69
2024/01/03 02:24:16;;;;;;;2.77;0.70;;;;;;;8.54;100.00;98482.63;5001693;28;20256;-70
2024/01/03 02:26:43;;;;;;;0.50;0.50;;;;;;;8.55;100.00;98487.50;4999015;28;20218;-69
2024/01/03 02:29:09;;;;;;;0.73;0.50;;;;;;;8.56;100.00;98491.66;5004431;28;20228;-68
2024/01/03 02:31:35;;;;;;;2.70;0.70;;;;;;;8.56;100.00;98483.78;5007029;28;20205;-69
2024/01/03 02:34:02;;;;;;;0.40;0.40;;;;;;;8.58;100.00;98489.41;5005625;28;20239;-69
2024/01/03 02:36:28;;;;;;;0.60;0.60;;;;;;;8.58;100.00;98478.13;5004058;28;20225;-70
2024/01/03 02:38:57;;;;;;;0.60;0.60;;;;;;;8.58;100.00;98483.38;5002284;28;21154;-70
2024/01/03 02:41:24;;;;;;;0.50;0.50;;;;;;;8.57;100.00;98484.50;5002986;28;20200;-69
2024/01/03 02:43:50;;;;;;;0.40;0.40;;;;;;;8.57;100.00;98477.38;4997276;28;20237;-70
2024/01/03 02:46:18;;;;;;;0.50;0.43;;;;;;;8.55;100.00;98494.66;5008051;28;20229;-69
2024/01/03 02:48:44;;;;;;;0.60;0.60;;;;;;;8.50;100.00;98487.81;5006699;28;20243;-70
2024/01/03 02:51:17;;;;;;;0.50;0.50;;;;;;;8.45;100.00;98490.03;5005059;28;20223;-70
2024/01/03 02:53:45;;;;;;;0.50;0.50;;;;;;;8.40;100.00;98477.97;5006022;28;20856;-69
2024/01/03 02:56:12;;;;;;;0.40;0.40;;;;;;;8.37;100.00;98483.94;5005650;28;21485;-70
2024/01/03 02:58:39;;;;;;;0.30;0.30;;;;;;;8.33;100.00;98477.16;5004620;28;20213;-69
2024/01/03 03:01:05;;;;;;;0.37;0.37;;;;;;;8.29;100.00;98479.72;5006445;28;20221;-70
2024/01/03 03:03:32;;;;;;;0.60;0.60;;;;;;;8.26;100.00;98475.19;5003321;28;20944;-71
2024/01/03 03:05:58;;;;;;;0.70;0.70;;;;;;;8.23;100.00;98475.16;5004592;28;20203;-69
2024/01/03 03:08:24;;;;;;;0.50;0.40;;;;;;;8.22;100.00;98481.53;5002376;28;20215;-69
2024/01/03 03:10:51;;;;;;;0.50;0.50;;;;;;;8.18;100.00;98473.56;5002826;28;20218;-69
2024/01/03 03:13:18;;;;;;;1.53;0.70;;;;;;;8.14;100.00;98475.41;5007619;28;20283;-69
2024/01/03 03:15:46;;;;;;;0.50;0.50;;;;;;;8.11;100.00;98481.41;5000569;28;20241;-69
2024/01/03 03:18:13;;;;;;;0.50;0.50;;;;;;;8.10;100.00;98481.75;5004203;28;21272;-70
2024/01/03 03:20:39;;;;;;;1.40;0.53;;;;;;;8.07;100.00;98477.22;5002783;28;20212;-69
2024/01/03 03:23:06;;;;;;;0.40;0.40;;;;;;;8.05;100.00;98485.47;5006513;28;20237;-69
2024/01/03 03:25:32;;;;;;;0.40;0.40;;;;;;;8.04;100.00;98477.94;5005130;28;20230;-70
2024/01/03 03:27:58;;;;;;;0.40;0.40;;;;;;;8.04;100.00;98485.81;5004870;28;20218;-70
2024/01/03 03:30:26;;;;;;;0.57;0.50;;;;;;;8.04;100.00;98483.19;5005124;28;20214;-68
2024/01/03 03:32:52;;;;;;;0.53;0.53;;;;;;;8.02;100.00;98486.16;5002901;28;21593;-71
2024/01/03 03:35:19;;;;;;;0.30;0.30;;;;;;;8.01;100.00;98479.41;5005490;28;21527;-70
2024/01/03 03:37:45;;;;;;;0.93;0.50;;;;;;;8.01;100.00;98483.88;5005729;28;20215;-70
2024/01/03 03:40:12;;;;;;;1.53;0.60;;;;;;;7.99;100.00;98491.38;5004836;28;20225;-69
2024/01/03 03:42:38;;;;;;;0.30;0.30;;;;;;;7.99;100.00;98489.53;5003231;28;20229;-70
2024/01/03 03:45:05;;;;;;;0.53;0.53;;;;;;;7.99;100.00;98492.16;5007723;28;20529;-69
2024/01/03 03:47:33;;;;;;;0.70;0.40;;;;;;;7.99;100.00;98481.66;5003256;28;20227;-70
2024/01/03 03:49:59;;;;;;;0.60;0.40;;;;;;;8.03;100.00;98503.44;5004663;28;20213;-69
2024/01/03 03:52:26;;;;;;;0.37;0.37;;;;;;;8.05;100.00;98489.94;5007045;28;21645;-69
2024/01/03 03:54:52;;;;;;;0.60;0.60;;;;;;;8.11;100.00;98497.16;5001316;28;21543;-69
2024/01/03 03:57:18;;;;;;;0.40;0.40;;;;;;;8.16;100.00;98499.47;5001458;28;20215;-69
2024/01/03 03:59:45;;;;;;;0.40;0.40;;;;;;;8.21;100.00;98506.31;5003393;28;21333;-69
2024/01/03 04:02:11;;;;;;;1.03;0.57;;;;;;;8.25;100.00;98502.63;4999046;28;20220;-70
2024/01/03 04:04:39;;;;;;;0.40;0.40;;;;;;;8.28;100.00;98501.88;5005475;28;20374;-69
2024/01/03 04:07:06;;;;;;;0.50;0.50;;;;;;;8.33;100.00;98513.97;5005161;28;20218;-70
2024/01/03 04:09:33;;;;;;;1.10;0.57;;;;;;;8.34;100.00;98505.69;5002390;28;20241;-70
2024/01/03 04:11:59;;;;;;;0.60;0.60;;;;;;;8.35;100.00;98514.34;5003052;28;20209;-69
2024/01/03 04:14:25;;;;;;;1.43;0.70;;;;;;;8.34;100.00;98520.72;5005134;28;20240;-69
2024/01/03 04:16:52;;;;;;;0.93;0.70;;;;;;;8.32;100.00;98518.47;5002693;28;20209;-70
2024/01/03 04:19:18;;;;;;;0.53;0.53;;;;;;;8.31;100.00;98516.94;5000279;28;20224;-70
2024/01/03 04:21:46;;;;;;;0.53;0.50;;;;;;;8.28;100.00;98522.91;5003054;28;20222;-69
2024/01/03 04:24:12;;;;;;;1.43;0.90;;;;;;;8.25;100.00;98515.00;5003992;28;20238;-70
2024/01/03 04:26:39;;;;;;;0.37;0.37;;;;;;;8.20;100.00;98526.59;5002592;28;20209;-69
2024/01/03 04:29:05;;;;;;;0.53;0.50;;;;;;;8.15;100.00;98523.50;5004397;28;20621;-69
2024/01/03 04:31:32;;;;;;;0.40;0.40;;;;;;;8.11;100.00;98522.69;5003901;28;20680;-68
2024/01/03 04:33:58;;;;;;;1.03;0.50;;;;;;;8.04;100.00;98519.97;4999712;28;21080;-70
2024/01/03 04:36:24;;;;;;;0.50;0.50;;;;;;;8.00;100.00;98522.56;5010176;28;20573;-70
2024/01/03 04:38:52;;;;;;;0.47;0.47;;;;;;;7.94;100.00;98516.13;5007339;28;20218;-68
2024/01/03 04:41:18;;;;;;;0.70;0.60;;;;;;;7.91;100.00;98514.19;5011514;28;20215;-68
2024/01/03 04:43:45;;;;;;;0.67;0.67;;;;;;;7.86;100.00;98532.13;5011201;28;20234;-68
2024/01/03 04:46:11;;;;;;;0.80;0.50;;;;;;;7.80;100.00;98517.78;5009674;28;20212;-68
2024/01/03 04:48:37;;;;;;;0.40;0.40;;;;;;;7.77;100.00;98521.88;5009544;28;20214;-69
2024/01/03 04:51:04;;;;;;;0.67;0.47;;;;;;;7.75;100.00;98524.13;5005671;28;20213;-69
2024/01/03 04:53:32;;;;;;;0.53;0.40;;;;;;;7.71;100.00;98527.84;5004152;28;20219;-68
2024/01/03 04:55:59;;;;;;;1.13;0.60;;;;;;;7.66;100.00;98528.88;5004532;28;20703;-69
2024/01/03 04:58:26;;;;;;;1.07;0.60;;;;;;;7.63;100.00;98528.84;5005472;28;20215;-70
2024/01/03 05:00:52;;;;;;;0.40;0.40;;;;;;;7.60;100.00;98526.91;5002062;28;21360;-68
2024/01/03 05:03:20;;;;;;;0.83;0.30;;;;;;;7.57;100.00;98528.38;5001845;28;20237;-69
2024/01/03 05:05:46;;;;;;;0.73;0.53;;;;;;;7.56;100.00;98526.13;5006658;22;20239;-71
2024/01/03 05:08:14;;;;;;;0.60;0.50;;;;;;;7.51;100.00;98524.53;4989736;28;20219;-72
2024/01/03 05:10:41;;;;;;;0.50;0.50;;;;;;;7.49;100.00;98532.03;4982948;28;20220;-71
2024/01/03 05:13:09;;;;;;;0.40;0.40;;;;;;;7.46;100.00;98529.34;4988826;28;20222;-72
2024/01/03 05:15:35;;;;;;;0.40;0.40;;;;;;;7.43;100.00;98522.19;4980428;28;21202;-72
2024/01/03 05:18:01;;;;;;;0.57;0.40;;;;;;;7.41;100.00;98527.78;4982380;28;20217;-72
2024/01/03 05:20:28;;;;;;;0.37;0.30;;;;;;;7.42;100.00;98534.56;4985603;28;20411;-71
2024/01/03 05:22:54;;;;;;;0.50;0.40;;;;;;;7.38;100.00;98536.38;4986355;28;20205;-71
2024/01/03 05:25:20;;;;;;;0.70;0.57;;;;;;;7.35;100.00;98537.06;4980349;28;20625;-72
2024/01/03 05:27:47;;;;;;;1.20;0.40;;;;;;;7.35;100.00;98536.31;4984594;28;20233;-72
2024/01/03 05:30:15;;;;;;;1.50;0.60;;;;;;;7.35;100.00;98542.31;4984931;28;20219;-71
2024/01/03 05:32:41;;;;;;;0.50;0.50;;;;;;;7.34;100.00;98538.19;4976761;28;20207;-72
2024/01/03 05:35:08;;;;;;;2.57;0.30;;;;;;;7.36;100.00;98545.72;4982759;28;20229;-72
2024/01/03 05:37:34;;;;;;;2.73;0.60;;;;;;;7.37;100.00;98545.38;4981569;28;20201;-71
2024/01/03 05:40:01;;;;;;;1.03;0.40;;;;;;;7.35;100.00;98544.94;4983324;28;20898;-71
2024/01/03 05:42:27;;;;;;;1.40;0.60;;;;;;;7.37;100.00;98547.22;4982347;28;20210;-72
2024/01/03 05:44:53;;;;;;;0.40;0.40;;;;;;;7.35;100.00;98552.06;4980423;28;20227;-72
2024/01/03 05:47:21;;;;;;;0.63;0.63;;;;;;;7.35;100.00;98558.06;4980304;28;20245;-72
2024/01/03 05:49:48;;;;;;;0.80;0.80;;;;;;;7.35;100.00;98565.22;4981383;28;20292;-72
2024/01/03 05:52:14;;;;;;;3.60;0.57;;;;;;;7.34;100.00;98564.44;4984169;28;20579;-72
2024/01/03 05:54:40;;;;;;;0.50;0.37;;;;;;;7.36;100.00;98571.97;4984165;28;20223;-72
2024/01/03 05:57:07;;;;;;;0.50;0.50;;;;;;;7.37;100.00;98573.47;4983582;28;20207;-72
2024/01/03 05:59:35;;;;;;;1.27;0.47;;;;;;;7.46;100.00;98576.63;4982913;28;20693;-72
2024/01/03 06:02:01;;;;;;;2.27;0.57;;;;;;;7.51;100.00;98569.19;4978085;28;20214;-72
2024/01/03 06:04:29;;;;;;;0.50;0.50;;;;;;;7.59;100.00;98581.31;4977688;28;20242;-71
2024/01/03 06:06:55;;;;;;;2.20;0.60;;;;;;;7.63;100.00;98587.38;4972831;28;20216;-71
2024/01/03 06:09:22;;;;;;;2.77;0.83;;;;;;;7.67;100.00;98590.06;4972268;28;20914;-71
2024/01/03 06:11:48;;;;;;;1.43;0.60;;;;;;;7.72;100.00;98590.50;4974042;28;20215;-72
2024/01/03 06:14:15;;;;;;;2.30;1.20;;;;;;;7.78;100.00;98589.09;4978256;28;20708;-72
2024/01/03 06:16:41;;;;;;;0.93;0.60;;;;;;;7.81;100.00;98579.75;4968083;28;20212;-71
2024/01/03 06:19:07;;;;;;;1.83;0.67;;;;;;;7.80;100.00;98581.63;4976637;28;21749;-72
2024/01/03 06:21:35;;;;;;;1.23;0.80;;;;;;;7.82;100.00;98586.53;4982177;28;20227;-71
2024/01/03 06:24:02;;;;;;;0.40;0.40;;;;;;;7.82;100.00;98589.88;4985742;28;20462;-71
2024/01/03 06:26:30;;;;;;;1.23;0.60;;;;;;;7.81;100.00;98585.75;4986352;28;21560;-71
2024/01/03 06:28:57;;;;;;;0.97;0.70;;;;;;;7.80;100.00;98597.38;4989866;28;20719;-72
2024/01/03 06:31:23;;;;;;;3.40;0.77;;;;;;;7.79;100.00;98589.84;4986283;28;20220;-72
2024/01/03 06:33:50;;;;;;;1.77;0.70;;;;;;;7.81;100.00;98595.53;4984664;28;20201;-71
2024/01/03 06:36:16;;;;;;;1.77;0.70;;;;;;;7.82;100.00;98610.16;4984495;28;20234;-71
2024/01/03 06:38:44;;;;;;;1.60;0.97;;;;;;;7.82;100.00;98610.91;4985706;28;20219;-71
2024/01/03 06:41:10;;;;;;;3.90;0.60;;;;;;;7.78;100.00;98612.75;4987218;28;21345;-72
2024/01/03 06:43:37;;;;;;;1.13;0.40;;;;;;;7.76;100.00;98609.69;4985125;28;20593;-72
2024/01/03 06:46:03;;;;;;;1.23;0.60;;;;;;;7.76;100.00;98616.84;4984151;28;23358;-71
2024/01/03 06:48:29;;;;;;;0.80;0.60;;;;;;;7.75;100.00;98617.94;4984421;28;20216;-71
2024/01/03 06:50:56;;;;;;;1.13;0.77;;;;;;;7.72;100.00;98624.66;4986088;28;21349;-72
2024/01/03 06:53:22;;;;;;;2.70;0.80;;;;;;;7.69;100.00;98633.25;4987390;28;20880;-72
2024/01/03 06:55:50;;;;;;;0.93;0.80;;;;;;;7.67;100.00;98634.72;4986341;28;20242;-72
2024/01/03 06:58:19;;;;;;;1.57;0.60;;;;;;;7.65;100.00;98637.69;4983330;28;20211;-72
2024/01/03 07:00:45;;;;;;;4.10;0.60;;;;;;;7.65;100.00;98648.19;4985639;28;20436;-71
2024/01/03 07:03:11;;;;;;;1.90;0.60;;;;;;;7.62;100.00;98653.41;4977960;28;20843;-72
2024/01/03 07:05:39;;;;;;;2.73;0.73;;;;;;;7.63;100.00;98654.91;4982121;28;20225;-72
2024/01/03 07:08:06;;;;;;;3.70;0.60;;;;;;;7.61;100.00;98659.75;4980318;28;20215;-71
2024/01/03 07:10:32;;;;;;;0.70;0.70;;;;;;;7.63;100.00;98654.91;4982731;28;20560;-72
2024/01/03 07:13:00;;;;;;;0.73;0.57;;;;;;;7.61;100.00;98657.88;4983502;28;20327;-71
2024/01/03 07:15:27;;;;;;;1.63;0.40;;;;;;;7.63;100.00;98665.41;4988528;28;20227;-71
2024/01/03 07:17:55;;;;;;;2.50;0.60;;;;;;;7.61;100.00;98659.75;4987895;28;20218;-72
2024/01/03 07:20:21;;;;;;;1.20;0.60;;;;;;;7.61;100.00;98659.75;4990999;28;20458;-71
2024/01/03 07:22:48;;;;;;;0.83;0.50;;;;;;;7.62;100.00;98663.91;4990195;28;20410;-71
2024/01/03 07:25:14;;;;;;;0.57;0.50;;;;;;;7.64;100.00;98667.69;4990602;28;20817;-72
2024/01/03 07:27:41;;;;;;;3.00;0.50;;;;;;;7.65;100.00;98684.19;5003514;28;20570;-71
2024/01/03 07:30:09;;;;;;;2.10;1.10;;;;;;;7.66;100.00;98672.59;4991216;28;20209;-71
2024/01/03 07:32:36;;;;;;;2.27;0.60;;;;;;;7.67;100.00;98677.47;4990182;28;20894;-72
2024/01/03 07:35:02;;;;;;;1.20;1.00;;;;;;;7.67;100.00;98674.13;4991733;28;20253;-71
2024/01/03 07:37:29;;;;;;;1.27;0.80;;;;;;;7.65;100.00;98678.94;4986791;28;20234;-71
2024/01/03 07:39:55;;;;;;;3.17;1.20;;;;;;;7.63;100.00;98679.31;4988650;28;20581;-71
2024/01/03 07:42:21;;;;;;;0.50;0.50;;;;;;;7.61;100.00;98678.91;4984619;28;20212;-72
2024/01/03 07:44:48;;;;;;;1.23;0.60;;;;;;;7.60;100.00;98685.25;4989615;28;20373;-71
2024/01/03 07:47:15;;;;;;;1.80;1.10;;;;;;;7.60;100.00;98682.63;4991154;28;20212;-72
2024/01/03 07:49:42;;;;;;;0.87;0.60;;;;;;;7.60;100.00;98681.88;4988138;28;20243;-71
2024/01/03 07:52:09;;;;;;;1.03;0.60;;;;;;;7.62;100.00;98687.53;4989371;28;20299;-71
2024/01/03 07:54:35;;;;;;;1.20;0.43;;;;;;;7.64;100.00;98686.09;4988770;28;20233;-72
2024/01/03 07:57:04;;;;;;;1.13;0.70;;;;;;;7.69;100.00;98688.41;4990897;28;20209;-71
2024/01/03 07:59:31;;;;;;;2.53;1.33;;;;;;;7.74;100.00;98682.88;4986920;28;20517;-71
2024/01/03 08:01:58;;;;;;;1.47;0.63;;;;;;;7.80;100.00;98685.94;4985860;28;20211;-72
2024/01/03 08:04:26;;;;;;;0.90;0.70;;;;;;;7.87;100.00;98680.81;4988759;28;20234;-72
2024/01/03 08:06:52;;;;;;;0.97;0.60;;;;;;;7.90;100.00;98696.63;4985716;28;20302;-72
2024/01/03 08:09:18;;;;;;;1.30;0.70;;;;;;;7.93;100.00;98684.66;4987664;28;20333;-71
2024/01/03 08:11:45;;;;;;;1.37;0.40;;;;;;;7.96;100.00;98691.81;4986564;28;20816;-71
2024/01/03 08:14:11;;;;;;;0.97;0.87;;;;;;;7.97;100.00;98688.84;4989135;28;20238;-71
2024/01/03 08:16:37;;;;;;;0.30;0.30;;;;;;;7.99;100.00;98685.88;4985593;28;21542;-72
2024/01/03 08:19:04;;;;;;;0.90;0.70;;;;;;;8.01;100.00;98688.88;4988924;28;20210;-72
2024/01/03 08:21:33;;;;;;;1.90;0.50;;;;;;;8.03;100.00;98689.31;4988164;28;20228;-71
2024/01/03 08:23:59;;;;;;;1.20;0.70;;;;;;;8.06;100.00;98689.34;4982076;28;20301;-71
2024/01/03 08:26:26;;;;;;;1.23;0.90;;;;;;;8.07;100.00;98685.59;4992110;28;20213;-71
2024/01/03 08:28:53;;;;;;;1.80;0.70;;;;;;;8.12;100.00;98700.34;4988173;28;20871;-72
2024/01/03 08:31:19;;;;;;;0.90;0.70;;;;;;;8.14;100.00;98696.22;4988061;28;20207;-71
2024/01/03 08:33:46;;;;;;;1.17;0.83;;;;;;;8.24;100.00;98700.16;4985390;28;20220;-72
2024/01/03 08:36:17;;;;;;;3.80;0.50;;;;;;;8.33;100.00;98696.16;4984384;28;21356;-71
2024/01/03 08:38:44;;;;;;;1.60;0.60;;;;;;;8.42;100.00;98704.53;4988457;28;20595;-72
2024/01/03 08:41:15;;;;;;;1.17;0.80;;;;;;;8.50;100.00;98706.13;4987669;28;20210;-72
2024/01/03 08:43:41;;;;;;;1.70;0.87;;;;;;;8.57;100.00;98708.09;4986802;28;20310;-71
2024/01/03 08:46:08;;;;;;;0.93;0.70;;;;;;;8.61;100.00;98714.94;4987322;28;20226;-71
2024/01/03 08:48:34;;;;;;;1.80;0.77;;;;;;;8.68;100.00;98706.34;4989645;28;20203;-71
2024/01/03 08:51:01;;;;;;;0.70;0.60;;;;;;;8.74;100.00;98718.06;4987055;28;20252;-72
2024/01/03 08:53:27;;;;;;;0.60;0.60;;;;;;;8.77;100.00;98710.25;4989591;28;20708;-72
2024/01/03 08:55:55;;;;;;;2.90;1.00;;;;;;;8.84;100.00;98709.56;4986602;28;20232;-71
2024/01/03 08:58:21;;;;;;;1.17;0.60;;;;;;;8.89;100.00;98717.13;4988008;28;20680;-71
2024/01/03 09:00:47;;;;;;;3.50;0.93;;;;;;;8.94;100.00;98711.56;4987927;28;20337;-71
2024/01/03 09:03:14;;;;;;;1.10;0.70;;;;;;;9.00;100.00;98710.13;4985576;28;20221;-72
2024/01/03 09:05:40;;;;;;;4.03;1.00;;;;;;;9.09;100.00;98715.88;4988881;28;20246;-71
2024/01/03 09:08:07;;;;;;;0.70;0.70;;;;;;;9.16;100.00;98719.31;4986053;28;21210;-72
2024/01/03 09:10:35;;;;;;;0.80;0.73;;;;;;;9.22;100.00;98715.25;4987357;28;20918;-72
2024/01/03 09:13:03;;;;;;;1.37;0.80;;;;;;;9.25;100.00;98725.06;4985586;28;20211;-72
2024/01/03 09:15:29;;;;;;;2.77;0.70;;;;;;;9.29;100.00;98715.34;4987750;28;20225;-72
2024/01/03 09:17:55;;;;;;;0.70;0.70;;;;;;;9.34;100.00;98720.28;4987867;28;20289;-71
2024/01/03 09:20:22;;;;;;;2.23;1.00;;;;;;;9.38;100.00;98715.78;4985756;28;20213;-71
2024/01/03 09:22:48;;;;;;;1.70;0.63;;;;;;;9.42;100.00;98727.13;4984976;28;20588;-71
2024/01/03 09:25:14;;;;;;;0.93;0.63;;;;;;;9.48;100.00;98728.31;4987134;28;20370;-71
2024/01/03 09:27:41;;;;;;;2.47;0.63;;;;;;;9.50;100.00;98726.09;4984614;28;20215;-71
2024/01/03 09:30:09;;;;;;;2.43;0.93;;;;;;;9.54;100.00;98732.16;4986788;28;20211;-71
2024/01/03 09:32:36;;;;;;;4.20;1.00;;;;;;;9.56;100.00;98729.13;5002729;28;20599;-72
2024/01/03 09:35:03;;;;;;;3.97;0.80;;;;;;;9.58;100.00;98726.91;4986403;28;20242;-72
2024/01/03 09:37:29;;;;;;;3.50;0.90;;;;;;;9.60;100.00;98735.19;4979317;28;20209;-71
2024/01/03 09:39:56;;;;;;;2.17;0.80;;;;;;;9.61;100.00;98728.78;4984758;28;20937;-71
2024/01/03 09:42:24;;;;;;;2.67;1.10;;;;;;;9.62;100.00;98730.34;4982412;28;20242;-71
2024/01/03 09:44:51;;;;;;;1.30;0.67;;;;;;;9.63;100.00;98737.84;4989437;28;20231;-71
2024/01/03 09:47:20;;;;;;;1.33;0.80;;;;;;;9.67;100.00;98749.19;4985413;28;20341;-71
2024/01/03 09:49:47;;;;;;;1.53;0.80;;;;;;;9.68;100.00;98742.78;4988881;28;20301;-72
2024/01/03 09:52:13;;;;;;;3.47;1.00;;;;;;;9.72;100.00;98743.59;4985611;28;20207;-71
2024/01/03 09:54:40;;;;;;;1.50;0.60;;;;;;;9.78;100.00;98744.03;4986820;28;20574;-72
2024/01/03 09:57:07;;;;;;;2.40;0.90;;;;;;;9.86;100.00;98741.09;4985656;28;20204;-71
2024/01/03 09:59:35;;;;;;;1.33;1.07;;;;;;;9.95;100.00;98733.59;4989717;28;20211;-72
2024/01/03 10:02:01;;;;;;;3.43;0.80;;;;;;;10.05;100.00;98732.97;4985357;28;20560;-71
2024/01/03 10:04:29;;;;;;;3.43;0.83;;;;;;;10.12;100.00;98732.25;4986406;28;20616;-71
2024/01/03 10:06:57;;;;;;;2.10;0.83;;;;;;;10.17;100.00;98721.38;4984422;28;20671;-72
2024/01/03 10:09:25;;;;;;;4.23;1.07;;;;;;;10.23;100.00;98725.16;4983698;28;20219;-70
2024/01/03 10:11:53;;;;;;;2.10;0.73;;;;;;;10.28;100.00;98736.16;4989441;28;20273;-71
2024/01/03 10:14:21;;;;;;;2.20;0.77;;;;;;;10.36;100.00;98729.78;4986848;28;20233;-72
2024/01/03 10:16:48;;;;;;;1.63;0.80;;;;;;;10.41;100.00;98732.06;4987509;28;21795;-72
2024/01/03 10:19:16;;;;;;;4.07;1.20;;;;;;;10.46;100.00;98731.72;4985260;28;20983;-71
2024/01/03 10:21:49;;;;;;;2.63;1.00;;;;;;;10.49;100.00;98722.31;4987853;28;20577;-71
2024/01/03 10:24:15;;;;;;;1.10;0.60;;;;;;;10.52;100.00;98726.88;4984092;28;20233;-71
2024/01/03 10:26:42;;;;;;;1.87;0.70;;;;;;;10.56;100.00;98722.38;4987304;28;20223;-71
2024/01/03 10:29:09;;;;;;;2.30;1.00;;;;;;;10.58;100.00;98720.88;4986105;28;20216;-71
2024/01/03 10:31:35;;;;;;;2.00;0.90;;;;;;;10.59;100.00;98727.66;4988159;28;20212;-71
2024/01/03 10:34:02;;;;;;;3.00;0.93;;;;;;;10.60;100.00;98712.56;4984262;28;20212;-71
2024/01/03 10:36:30;;;;;;;4.90;0.90;;;;;;;10.59;100.00;98722.38;4983740;28;20548;-71
2024/01/03 10:39:00;;;;;;;3.17;0.73;;;;;;;10.60;100.00;98723.13;4985422;28;20223;-70
2024/01/03 10:41:27;;;;;;;1.03;0.77;;;;;;;10.61;100.00;98716.75;4983825;28;20205;-71
2024/01/03 10:43:55;;;;;;;2.80;0.70;;;;;;;10.60;100.00;98717.84;4984872;28;20217;-71
2024/01/03 10:46:22;;;;;;;2.43;1.10;;;;;;;10.61;100.00;98719.38;4983985;28;20225;-72
2024/01/03 10:48:48;;;;;;;1.47;0.70;;;;;;;10.62;100.00;98718.97;4988547;28;20536;-71
2024/01/03 10:51:17;;;;;;;1.23;0.87;;;;;;;10.63;100.00;98722.41;4990515;28;20212;-71
2024/01/03 10:53:44;;;;;;;2.20;0.80;;;;;;;10.63;100.00;98706.56;4992690;28;20217;-71
2024/01/03 10:56:16;;;;;;;2.50;0.93;;;;;;;10.62;100.00;98691.84;4985424;28;20244;-71
2024/01/03 10:58:42;;;;;;;1.93;0.70;;;;;;;10.61;100.00;98704.28;4988444;28;20469;-71
2024/01/03 11:01:16;;;;;;;2.00;0.93;;;;;;;10.63;100.00;98698.63;4980551;28;20207;-71
2024/01/03 11:03:46;;;;;;;1.23;1.03;;;;;;;10.60;100.00;98696.72;4979341;28;21250;-71
2024/01/03 11:06:20;;;;;;;2.07;0.63;;;;;;;10.61;100.00;98703.53;4999940;22;20229;-73
2024/01/03 11:08:50;;;;;;;2.57;1.07;;;;;;;10.60;100.00;98708.06;4986070;28;20218;-74
2024/01/03 11:11:30;;;;;;;1.70;0.80;;;;;;;10.60;100.00;98707.28;4986374;28;20217;-74
2024/01/03 11:13:57;;;;;;;2.90;0.77;;;;;;;10.58;100.00;98705.03;4989687;28;20917;-74
2024/01/03 11:16:35;;;;;;;1.67;0.70;;;;;;;10.60;100.00;98707.28;4985288;28;21294;-74
2024/01/03 11:19:01;;;;;;;1.83;0.80;;;;;;;10.57;100.00;98711.41;4988029;28;20217;-75
2024/01/03 11:21:43;;;;;;;2.87;1.00;;;;;;;10.58;100.00;98701.63;4987141;28;20219;-74
2024/01/03 11:24:44;;;;;;;1.53;0.90;;;;;;;10.57;100.00;98706.13;4993380;28;20233;-74
2024/01/03 11:27:21;;;;;;;2.10;1.00;;;;;;;10.59;100.00;98695.22;4987286;28;20292;-74
2024/01/03 11:29:49;;;;;;;0.80;0.80;;;;;;;10.59;100.00;98705.78;4990942;28;20302;-73
2024/01/03 11:32:16;;;;;;;1.47;0.97;;;;;;;10.60;100.00;98692.22;4987349;28;20438;-74